createdAt,value
2022-10-05T00:00:01.568Z,4.28
2022-10-05T00:02:33.409Z,4.35
2022-10-05T00:05:06.996Z,4.00
2022-10-05T00:07:37.338Z,4.67
2022-10-05T00:10:10.823Z,3.98
2022-10-05T00:12:41.502Z,4.15
2022-10-05T00:15:13.799Z,4.08
2022-10-05T00:17:44.168Z,4.20
2022-10-05T00:20:20.528Z,4.60
2022-10-05T00:23:00.133Z,4.62
2022-10-05T00:25:30.531Z,4.03
2022-10-05T00:28:02.249Z,4.47
2022-10-05T00:30:34.675Z,4.50
2022-10-05T00:33:04.983Z,4.47
2022-10-05T00:35:37.001Z,4.30
2022-10-05T00:38:07.440Z,4.20
2022-10-05T00:41:02.168Z,4.20
2022-10-05T00:43:47.371Z,4.55
2022-10-05T00:46:29.240Z,4.30
2022-10-05T00:49:14.658Z,4.47
2022-10-05T00:51:48.059Z,4.20
2022-10-05T00:54:21.536Z,4.42
2022-10-05T00:57:11.639Z,4.20
2022-10-05T00:59:50.902Z,4.40
2022-10-05T01:02:37.102Z,4.37
2022-10-05T01:05:27.333Z,4.25
2022-10-05T01:08:20.311Z,4.17
2022-10-05T01:11:11.921Z,4.12
2022-10-05T01:13:51.422Z,4.55
2022-10-05T01:16:49.849Z,4.25
2022-10-05T01:19:40.255Z,4.20
2022-10-05T01:22:16.676Z,4.10
2022-10-05T01:24:53.041Z,4.30
2022-10-05T01:27:39.068Z,4.20
2022-10-05T01:30:15.546Z,3.95
2022-10-05T01:33:04.012Z,3.87
2022-10-05T01:35:39.888Z,4.40
2022-10-05T01:38:25.278Z,4.10
2022-10-05T01:41:21.414Z,4.25
2022-10-05T01:43:57.676Z,4.05
2022-10-05T01:46:46.618Z,4.30
2022-10-05T01:49:39.827Z,4.12
2022-10-05T01:52:22.035Z,4.00
2022-10-05T01:55:18.218Z,4.00
2022-10-05T01:58:00.466Z,4.15
2022-10-05T02:00:33.893Z,4.00
2022-10-05T02:03:10.393Z,4.25
2022-10-05T02:05:43.900Z,4.10
2022-10-05T02:08:26.475Z,4.05
2022-10-05T02:11:02.716Z,3.77
2022-10-05T02:13:39.151Z,4.12
2022-10-05T02:16:29.241Z,4.20
2022-10-05T02:19:21.114Z,4.37
2022-10-05T02:22:12.792Z,4.28
2022-10-05T02:24:46.238Z,3.90
2022-10-05T02:27:19.779Z,3.87
2022-10-05T02:29:51.639Z,4.80
2022-10-05T02:32:25.107Z,4.13
2022-10-05T02:34:58.579Z,3.92
2022-10-05T02:37:43.471Z,4.45
2022-10-05T02:40:25.495Z,3.67
2022-10-05T02:42:58.970Z,3.92
2022-10-05T02:45:38.028Z,4.08
2022-10-05T02:48:17.508Z,4.70
2022-10-05T02:51:03.126Z,4.45
2022-10-05T02:53:54.659Z,4.43
2022-10-05T02:56:33.839Z,4.45
2022-10-05T02:59:24.923Z,4.10
2022-10-05T03:02:16.464Z,4.42
2022-10-05T03:05:08.043Z,4.28
2022-10-05T03:07:56.487Z,4.30
2022-10-05T03:10:42.311Z,3.92
2022-10-05T03:13:24.726Z,3.60
2022-10-05T03:16:19.327Z,4.90
2022-10-05T03:19:13.869Z,5.67
2022-10-05T03:21:50.143Z,4.20
2022-10-05T03:24:32.175Z,4.50
2022-10-05T03:27:08.728Z,3.90
2022-10-05T03:29:57.043Z,4.08
2022-10-05T03:32:39.385Z,3.98
2022-10-05T03:35:32.447Z,3.90
2022-10-05T03:38:20.970Z,3.90
2022-10-05T03:41:03.193Z,3.90
2022-10-05T03:43:51.882Z,3.90
2022-10-05T03:46:49.977Z,4.30
2022-10-05T03:49:41.575Z,3.80
2022-10-05T03:52:22.521Z,3.67
2022-10-05T03:54:58.822Z,3.83
2022-10-05T03:57:31.999Z,3.75
2022-10-05T04:00:08.278Z,3.80
2022-10-05T04:02:41.848Z,3.72
2022-10-05T04:05:15.381Z,3.70
2022-10-05T04:07:54.783Z,4.08
2022-10-05T04:10:33.978Z,3.70
2022-10-05T04:13:07.542Z,3.77
2022-10-05T04:15:46.816Z,3.83
2022-10-05T04:18:26.285Z,3.70
2022-10-05T04:20:59.759Z,3.70
2022-10-05T04:23:36.028Z,3.83
2022-10-05T04:26:09.589Z,3.75
2022-10-05T04:29:00.971Z,4.08
2022-10-05T04:31:40.546Z,4.00
2022-10-05T04:34:16.714Z,4.30
2022-10-05T04:36:50.245Z,4.10
2022-10-05T04:39:26.723Z,4.40
2022-10-05T04:42:03.221Z,4.08
2022-10-05T04:44:47.944Z,3.80
2022-10-05T04:47:33.129Z,4.50
2022-10-05T04:50:14.844Z,4.45
2022-10-05T04:53:03.541Z,4.50
2022-10-05T04:55:36.920Z,4.35
2022-10-05T04:58:29.882Z,3.77
2022-10-05T05:01:15.609Z,4.13
2022-10-05T05:04:04.025Z,4.10
2022-10-05T05:06:52.643Z,4.17
2022-10-05T05:09:29.077Z,4.07
2022-10-05T05:12:08.314Z,3.90
2022-10-05T05:14:56.810Z,4.60
2022-10-05T05:17:49.910Z,5.12
2022-10-05T05:20:26.104Z,3.75
2022-10-05T05:23:20.783Z,4.28
2022-10-05T05:26:02.914Z,4.15
2022-10-05T05:28:39.342Z,4.10
2022-10-05T05:31:12.980Z,4.60
2022-10-05T05:33:58.479Z,4.45
2022-10-05T05:36:34.431Z,4.50
2022-10-05T05:39:22.498Z,4.70
2022-10-05T05:42:02.078Z,3.98
2022-10-05T05:44:39.098Z,4.00
2022-10-05T05:47:13.134Z,4.60
2022-10-05T05:50:11.525Z,4.45
2022-10-05T05:53:05.731Z,4.75
2022-10-05T05:55:39.782Z,4.45
2022-10-05T05:58:16.170Z,4.65
2022-10-05T06:00:55.193Z,5.20
2022-10-05T06:03:50.087Z,4.40
2022-10-05T06:06:23.470Z,4.60
2022-10-05T06:09:00.683Z,4.80
2022-10-05T06:11:34.255Z,4.28
2022-10-05T06:14:19.526Z,4.50
2022-10-05T06:16:56.012Z,4.62
2022-10-05T06:19:28.816Z,4.37
2022-10-05T06:22:08.565Z,4.65
2022-10-05T06:25:07.524Z,4.17
2022-10-05T06:27:39.650Z,4.30
2022-10-05T06:30:15.734Z,4.50
2022-10-05T06:33:06.063Z,4.25
2022-10-05T06:36:00.564Z,4.47
2022-10-05T06:39:04.150Z,4.42
2022-10-05T06:41:52.762Z,4.30
2022-10-05T06:44:29.088Z,4.95
2022-10-05T06:47:08.806Z,4.75
2022-10-05T06:49:44.938Z,4.47
2022-10-05T06:52:42.517Z,4.53
2022-10-05T06:55:18.815Z,4.85
2022-10-05T06:57:58.100Z,4.40
2022-10-05T07:00:49.709Z,4.40
2022-10-05T07:03:39.769Z,4.08
2022-10-05T07:06:13.144Z,5.25
2022-10-05T07:08:49.444Z,4.47
2022-10-05T07:11:31.510Z,4.42
2022-10-05T07:14:11.024Z,4.92
2022-10-05T07:17:19.645Z,4.10
2022-10-05T07:20:02.094Z,4.83
2022-10-05T07:22:53.643Z,5.80
2022-10-05T07:25:39.093Z,4.80
2022-10-05T07:28:15.334Z,4.42
2022-10-05T07:30:51.872Z,5.00
2022-10-05T07:33:28.089Z,4.35
2022-10-05T07:36:34.065Z,4.10
2022-10-05T07:39:20.184Z,4.08
2022-10-05T07:41:54.588Z,4.03
2022-10-05T07:44:33.846Z,4.20
2022-10-05T07:47:19.386Z,3.75
2022-10-05T07:50:02.365Z,4.00
2022-10-05T07:52:41.783Z,3.90
2022-10-05T07:55:24.498Z,3.70
2022-10-05T07:58:22.093Z,4.10
2022-10-05T08:01:20.278Z,4.00
2022-10-05T08:04:06.179Z,3.72
2022-10-05T08:06:45.622Z,3.92
2022-10-05T08:09:48.268Z,4.20
2022-10-05T08:12:21.813Z,3.60
2022-10-05T08:14:57.934Z,3.95
2022-10-05T08:17:43.501Z,3.70
2022-10-05T08:20:22.916Z,3.65
2022-10-05T08:23:01.939Z,3.65
2022-10-05T08:25:52.951Z,3.52
2022-10-05T08:28:29.159Z,3.80
2022-10-05T08:31:02.623Z,4.00
2022-10-05T08:33:38.531Z,3.80
2022-10-05T08:36:11.946Z,3.85
2022-10-05T08:38:43.402Z,3.40
2022-10-05T08:41:16.815Z,3.70
2022-10-05T08:44:09.714Z,3.65
2022-10-05T08:47:11.977Z,3.95
2022-10-05T08:50:15.988Z,3.50
2022-10-05T08:53:15.463Z,3.90
2022-10-05T08:55:54.758Z,3.50
2022-10-05T08:58:57.604Z,3.95
2022-10-05T09:01:46.341Z,3.60
2022-10-05T09:04:41.066Z,3.52
2022-10-05T09:07:23.642Z,3.42
2022-10-05T09:10:19.828Z,3.20
2022-10-05T09:13:13.275Z,3.55
2022-10-05T09:16:17.115Z,3.27
2022-10-05T09:19:24.206Z,3.65
2022-10-05T09:21:57.642Z,3.98
2022-10-05T09:24:31.221Z,3.52
2022-10-05T09:27:22.587Z,3.67
2022-10-05T09:30:01.647Z,3.52
2022-10-05T09:32:51.692Z,3.58
2022-10-05T09:35:57.058Z,3.50
2022-10-05T09:38:47.200Z,3.50
2022-10-05T09:41:55.848Z,3.75
2022-10-05T09:44:54.523Z,3.52
2022-10-05T09:47:46.180Z,3.58
2022-10-05T09:50:31.021Z,3.10
2022-10-05T09:53:21.153Z,3.35
2022-10-05T09:56:20.252Z,3.65
2022-10-05T09:59:13.297Z,3.50
2022-10-05T10:02:04.516Z,3.90
2022-10-05T10:04:53.269Z,3.95
2022-10-05T10:07:43.254Z,3.92
2022-10-05T10:10:41.726Z,3.52
2022-10-05T10:13:45.565Z,3.27
2022-10-05T10:16:37.032Z,3.70
2022-10-05T10:19:24.017Z,3.60
2022-10-05T10:22:06.786Z,3.72
2022-10-05T10:24:58.257Z,3.77
2022-10-05T10:27:52.351Z,3.83
2022-10-05T10:30:44.009Z,3.98
2022-10-05T10:33:42.132Z,4.10
2022-10-05T10:36:21.458Z,3.83
2022-10-05T10:39:09.252Z,4.17
2022-10-05T10:41:48.535Z,4.05
2022-10-05T10:44:38.545Z,3.62
2022-10-05T10:47:29.993Z,4.22
2022-10-05T10:50:29.361Z,3.80
2022-10-05T10:53:22.714Z,3.52
2022-10-05T10:56:17.286Z,3.35
2022-10-05T10:58:59.905Z,3.77
2022-10-05T11:01:55.297Z,3.98
2022-10-05T11:04:59.176Z,4.10
2022-10-05T11:08:05.885Z,3.45
2022-10-05T11:10:41.965Z,4.00
2022-10-05T11:13:34.786Z,4.10
2022-10-05T11:16:12.533Z,3.33
2022-10-05T11:19:21.712Z,4.42
2022-10-05T11:22:30.074Z,3.67
2022-10-05T11:25:21.755Z,3.80
2022-10-05T11:28:21.329Z,3.80
2022-10-05T11:31:06.805Z,3.80
2022-10-05T11:33:57.018Z,3.33
2022-10-05T11:36:48.654Z,3.90
2022-10-05T11:39:39.949Z,3.60
2022-10-05T11:42:33.194Z,3.95
2022-10-05T11:45:24.995Z,3.87
2022-10-05T11:48:25.785Z,3.67
2022-10-05T11:51:25.224Z,3.87
2022-10-05T11:54:13.437Z,3.62
2022-10-05T11:57:03.669Z,4.12
2022-10-05T11:59:40.047Z,3.85
2022-10-05T12:02:45.230Z,3.62
2022-10-05T12:05:24.558Z,4.20
2022-10-05T12:08:00.696Z,3.87
2022-10-05T12:10:49.087Z,3.67
2022-10-05T12:13:34.146Z,3.72
2022-10-05T12:16:22.772Z,3.83
2022-10-05T12:18:56.349Z,4.03
2022-10-05T12:21:41.884Z,3.80
2022-10-05T12:24:26.881Z,3.37
2022-10-05T12:27:17.902Z,3.47
2022-10-05T12:29:51.418Z,3.70
2022-10-05T12:32:36.744Z,3.35
2022-10-05T12:35:11.655Z,3.33
2022-10-05T12:37:48.221Z,3.30
2022-10-05T12:40:26.903Z,3.50
2022-10-05T12:43:04.648Z,3.50
2022-10-05T12:45:42.560Z,3.45
2022-10-05T12:48:31.299Z,3.35
2022-10-05T12:51:21.918Z,3.27
2022-10-05T12:54:13.435Z,3.37
2022-10-05T12:56:52.995Z,3.00
2022-10-05T12:59:28.919Z,3.10
2022-10-05T13:02:08.787Z,3.37
2022-10-05T13:04:42.462Z,3.00
2022-10-05T13:07:30.972Z,2.83
2022-10-05T13:10:13.090Z,3.00
2022-10-05T13:12:55.602Z,3.30
2022-10-05T13:15:37.990Z,3.15
2022-10-05T13:18:32.533Z,3.12
2022-10-05T13:21:09.151Z,3.27
2022-10-05T13:24:05.210Z,2.85
2022-10-05T13:26:39.032Z,3.00
2022-10-05T13:29:24.989Z,3.17
2022-10-05T13:32:02.223Z,2.90
2022-10-05T13:34:41.724Z,2.90
2022-10-05T13:37:33.314Z,2.85
2022-10-05T13:40:06.791Z,3.25
2022-10-05T13:42:40.365Z,3.25
2022-10-05T13:45:20.136Z,3.17
2022-10-05T13:48:14.845Z,3.33
2022-10-05T13:51:19.881Z,2.90
2022-10-05T13:54:09.991Z,3.20
2022-10-05T13:56:52.324Z,3.02
2022-10-05T13:59:39.651Z,2.95
2022-10-05T14:02:15.927Z,2.83
2022-10-05T14:04:52.052Z,2.80
2022-10-05T14:07:43.016Z,3.20
2022-10-05T14:10:18.426Z,6.30
2022-10-05T14:12:51.858Z,4.47
2022-10-05T14:15:25.649Z,3.50
2022-10-05T14:17:57.987Z,3.58
2022-10-05T14:20:34.636Z,2.83
2022-10-05T14:23:08.086Z,2.85
2022-10-05T14:25:51.994Z,4.58
2022-10-05T14:28:31.443Z,3.02
2022-10-05T14:31:19.128Z,3.55
2022-10-05T14:33:50.076Z,2.92
2022-10-05T14:36:43.962Z,3.55
2022-10-05T14:39:15.331Z,3.55
2022-10-05T14:41:51.349Z,3.37
2022-10-05T14:47:04.475Z,3.72
2022-10-05T14:49:36.898Z,3.40
2022-10-05T14:52:27.061Z,3.33
2022-10-05T14:55:01.190Z,3.65
2022-10-05T14:57:38.890Z,3.27
2022-10-05T15:00:17.552Z,4.47
2022-10-05T15:03:03.439Z,3.45
2022-10-05T15:05:55.235Z,3.22
2022-10-05T15:08:38.970Z,3.50
2022-10-05T15:11:36.948Z,3.40
2022-10-05T15:14:16.443Z,3.30
2022-10-05T15:16:49.416Z,3.22
2022-10-05T15:19:25.970Z,3.40
2022-10-05T15:22:02.549Z,3.40
2022-10-05T15:24:49.329Z,3.77
2022-10-05T15:27:43.950Z,3.08
2022-10-05T15:30:21.751Z,3.15
2022-10-05T15:33:15.612Z,3.30
2022-10-05T15:35:53.247Z,4.83
2022-10-05T15:38:30.034Z,4.15
2022-10-05T15:41:09.539Z,4.33
2022-10-05T15:43:44.716Z,4.03
2022-10-05T15:46:18.264Z,4.15
2022-10-05T15:49:09.791Z,3.70
2022-10-05T15:52:02.482Z,3.22
2022-10-05T15:54:44.609Z,3.65
2022-10-05T15:57:42.249Z,3.50
2022-10-05T16:00:15.333Z,3.50
2022-10-05T16:02:57.512Z,3.40
2022-10-05T16:06:06.054Z,3.67
2022-10-05T16:08:51.331Z,3.65
2022-10-05T16:11:47.416Z,3.50
2022-10-05T16:14:43.566Z,3.95
2022-10-05T16:17:20.286Z,3.90
2022-10-05T16:20:03.188Z,4.08
2022-10-05T16:22:52.141Z,4.08
2022-10-05T16:25:28.802Z,4.58
2022-10-05T16:28:05.903Z,3.42
2022-10-05T16:30:42.483Z,3.83
2022-10-05T16:33:39.814Z,3.80
2022-10-05T16:36:15.378Z,4.35
2022-10-05T16:38:52.062Z,3.27
2022-10-05T16:41:43.038Z,4.50
2022-10-05T16:44:25.387Z,4.75
2022-10-05T16:46:58.865Z,3.60
2022-10-05T16:49:38.230Z,3.45
2022-10-05T16:52:11.726Z,3.87
2022-10-05T16:54:47.885Z,3.60
2022-10-05T16:57:29.201Z,3.65
2022-10-05T17:00:19.221Z,5.92
2022-10-05T17:03:16.472Z,5.08
2022-10-05T17:06:01.895Z,3.77
2022-10-05T17:08:36.667Z,6.40
2022-10-05T17:11:29.785Z,3.15
2022-10-05T17:14:18.185Z,4.40
2022-10-05T17:17:19.059Z,4.00
2022-10-05T17:20:15.537Z,3.72
2022-10-05T17:22:55.048Z,4.22
2022-10-05T17:25:44.812Z,9.45
2022-10-05T17:28:21.485Z,6.25
2022-10-05T17:30:59.331Z,5.15
2022-10-05T17:33:31.884Z,4.33
2022-10-05T17:36:07.038Z,4.78
2022-10-05T17:38:43.323Z,4.40
2022-10-05T17:41:16.805Z,4.47
2022-10-05T17:44:17.453Z,5.35
2022-10-05T17:46:59.623Z,6.08
2022-10-05T17:50:18.946Z,7.33
2022-10-05T17:53:12.377Z,4.85
2022-10-05T17:55:47.080Z,5.83
2022-10-05T17:58:29.769Z,6.47
2022-10-05T18:01:04.181Z,5.47
2022-10-05T18:03:46.708Z,5.72
2022-10-05T18:06:32.149Z,10.60
2022-10-05T18:09:21.769Z,7.47
2022-10-05T18:12:20.472Z,5.42
2022-10-05T18:14:56.944Z,5.50
2022-10-05T18:17:46.877Z,5.83
2022-10-05T18:20:32.143Z,6.28
2022-10-05T18:23:09.608Z,6.22
2022-10-05T18:25:51.986Z,5.55
2022-10-05T18:28:34.312Z,5.90
2022-10-05T18:31:29.162Z,5.50
2022-10-05T18:34:18.056Z,6.12
2022-10-05T18:37:16.012Z,9.10
2022-10-05T18:40:25.914Z,5.95
2022-10-05T18:43:26.505Z,5.08
2022-10-05T18:46:11.615Z,6.10
2022-10-05T18:49:01.738Z,5.45
2022-10-05T18:51:51.562Z,5.97
2022-10-05T18:54:43.169Z,6.65
2022-10-05T18:57:37.548Z,5.80
2022-10-05T19:00:20.022Z,7.40
2022-10-05T19:03:05.822Z,5.85
2022-10-05T19:05:48.125Z,5.78
2022-10-05T19:08:21.946Z,5.55
2022-10-05T19:10:55.487Z,6.22
2022-10-05T19:13:50.913Z,5.42
2022-10-05T19:16:59.845Z,6.62
2022-10-05T19:19:43.811Z,5.85
2022-10-05T19:22:40.297Z,5.30
2022-10-05T19:25:33.287Z,4.60
2022-10-05T19:28:21.179Z,5.70
2022-10-05T19:31:14.375Z,6.50
2022-10-05T19:33:47.999Z,4.75
2022-10-05T19:36:48.851Z,5.35
2022-10-05T19:39:48.409Z,5.65
2022-10-05T19:42:30.650Z,4.80
2022-10-05T19:45:07.041Z,5.42
2022-10-05T19:48:10.866Z,5.08
2022-10-05T19:50:44.485Z,11.63
2022-10-05T19:53:17.416Z,5.28
2022-10-05T19:55:48.358Z,5.22
2022-10-05T19:58:27.288Z,5.33
2022-10-05T20:01:00.405Z,4.55
2022-10-05T20:03:33.573Z,4.83
2022-10-05T20:06:06.706Z,4.62
2022-10-05T20:08:45.829Z,4.28
2022-10-05T20:11:23.408Z,4.70
2022-10-05T20:13:56.874Z,4.90
2022-10-05T20:16:48.140Z,4.60
2022-10-05T20:19:38.383Z,4.58
2022-10-05T20:22:40.053Z,4.40
2022-10-05T20:25:22.178Z,5.03
2022-10-05T20:27:57.779Z,5.17
2022-10-05T20:30:31.601Z,5.37
2022-10-05T20:33:03.634Z,5.37
2022-10-05T20:35:34.035Z,5.05
2022-10-05T20:38:04.382Z,4.95
2022-10-05T20:40:35.058Z,4.53
2022-10-05T20:43:05.453Z,4.87
2022-10-05T20:45:36.220Z,5.03
2022-10-05T20:48:06.644Z,4.42
2022-10-05T20:50:38.741Z,4.60
2022-10-05T20:53:11.953Z,5.47
2022-10-05T20:55:41.276Z,4.50
2022-10-05T20:58:11.634Z,4.65
2022-10-05T21:00:59.940Z,4.85
2022-10-05T21:03:30.663Z,7.28
2022-10-05T21:06:01.016Z,7.08
2022-10-05T21:08:31.724Z,4.30
2022-10-05T21:11:02.148Z,4.70
2022-10-05T21:13:32.456Z,4.83
2022-10-05T21:16:05.070Z,4.40
2022-10-05T21:18:35.581Z,4.17
2022-10-05T21:21:06.126Z,4.92
2022-10-05T21:23:36.518Z,4.17
2022-10-05T21:26:07.965Z,4.30
2022-10-05T21:28:39.416Z,3.92
2022-10-05T21:31:10.878Z,4.10
2022-10-05T21:33:41.288Z,3.70
2022-10-05T21:36:11.905Z,4.15
2022-10-05T21:38:42.841Z,4.53
2022-10-05T21:41:13.248Z,4.20
2022-10-05T21:43:44.053Z,4.33
2022-10-05T21:46:19.097Z,4.35
2022-10-05T21:48:50.893Z,4.08
2022-10-05T21:51:23.251Z,4.15
2022-10-05T21:53:58.864Z,3.98
2022-10-05T21:56:35.464Z,4.35
2022-10-05T21:59:09.449Z,4.10
2022-10-05T22:01:39.836Z,4.35
2022-10-05T22:04:10.220Z,4.10
2022-10-05T22:06:40.738Z,3.70
2022-10-05T22:09:11.944Z,4.55
2022-10-05T22:11:42.273Z,4.47
2022-10-05T22:14:15.419Z,3.90
2022-10-05T22:16:45.878Z,4.00
2022-10-05T22:19:19.651Z,3.87
2022-10-05T22:21:50.037Z,4.15
2022-10-05T22:24:20.403Z,3.55
2022-10-05T22:26:52.776Z,3.83
2022-10-05T22:29:23.616Z,3.90
2022-10-05T22:31:58.298Z,4.35
2022-10-05T22:34:30.269Z,3.98
2022-10-05T22:37:01.948Z,3.85
2022-10-05T22:39:32.267Z,4.00
2022-10-05T22:42:02.774Z,3.80
2022-10-05T22:44:33.885Z,4.00
2022-10-05T22:47:04.856Z,4.33
2022-10-05T22:49:35.236Z,3.70
2022-10-05T22:52:05.585Z,3.80
2022-10-05T22:54:37.400Z,3.67
2022-10-05T22:57:08.017Z,4.00
2022-10-05T22:59:38.386Z,3.55
2022-10-05T23:02:08.765Z,3.70
2022-10-05T23:04:39.249Z,3.90
2022-10-05T23:07:09.584Z,3.85
2022-10-05T23:09:39.956Z,4.37
2022-10-05T23:12:12.039Z,3.77
2022-10-05T23:14:42.443Z,3.75
2022-10-05T23:17:12.775Z,4.00
2022-10-05T23:19:43.162Z,4.03
2022-10-05T23:22:13.567Z,3.72
2022-10-05T23:24:43.946Z,4.17
2022-10-05T23:27:14.416Z,4.20
2022-10-05T23:29:44.801Z,3.92
2022-10-05T23:32:15.135Z,4.10
2022-10-05T23:34:45.541Z,4.40
2022-10-05T23:37:17.685Z,4.10
2022-10-05T23:39:48.195Z,3.80
2022-10-05T23:42:18.904Z,4.20
2022-10-05T23:44:49.313Z,3.90
2022-10-05T23:47:19.689Z,3.92
2022-10-05T23:49:50.165Z,3.77
2022-10-05T23:52:20.589Z,3.98
2022-10-05T23:54:50.988Z,3.80
2022-10-05T23:57:21.476Z,3.90
2022-10-05T23:59:51.853Z,3.72
